Time;durP1;ratioP1;P1;durP2;ratioP2;P2;SDS_P1;SDS_P2;PMS_P1;PMS_P2;Temp;Humidity;BMP_temperature;BMP_pressure;BME280_temperature;BME280_humidity;BME280_pressure;Samples;Min_cycle;Max_cycle;Signal;HPM_P1;HPM_P2
2022/12/12 00:00:09;;;;;;;3.00;2.60;;;;;;;20.75;34.30;101152.47;5025963;28;20041;-72
2022/12/12 00:02:39;;;;;;;3.72;2.60;;;;;;;20.76;34.16;101148.00;5026577;28;20033;-72
2022/12/12 00:05:06;;;;;;;3.17;2.55;;;;;;;20.80;34.28;101155.41;5027721;28;20040;-72
2022/12/12 00:07:32;;;;;;;3.20;2.60;;;;;;;20.71;34.20;101148.53;5030954;28;20455;-72
2022/12/12 00:09:57;;;;;;;3.22;2.50;;;;;;;20.71;34.23;101153.00;5032845;28;20050;-72
2022/12/12 00:12:23;;;;;;;3.28;2.40;;;;;;;20.72;34.42;101158.13;5030529;28;20041;-72
2022/12/12 00:14:48;;;;;;;3.03;2.42;;;;;;;20.76;34.16;101162.06;5031080;28;20053;-72
2022/12/12 00:17:14;;;;;;;3.60;2.90;;;;;;;20.77;34.27;101150.47;5027978;28;20041;-72
2022/12/12 00:19:39;;;;;;;3.13;2.58;;;;;;;20.70;34.42;101159.31;5031092;28;20033;-72
2022/12/12 00:22:05;;;;;;;4.07;2.60;;;;;;;20.70;34.19;101157.50;5028464;28;20041;-72
2022/12/12 00:24:30;;;;;;;2.75;2.45;;;;;;;20.71;34.34;101155.66;5029480;28;20045;-72
2022/12/12 00:26:56;;;;;;;3.13;2.50;;;;;;;20.67;34.43;101155.19;5030471;28;20484;-73
2022/12/12 00:29:21;;;;;;;3.85;2.92;;;;;;;20.65;34.31;101153.72;5030076;28;20487;-72
2022/12/12 00:31:47;;;;;;;3.72;2.80;;;;;;;20.66;34.36;101160.69;5033210;28;20045;-72
2022/12/12 00:34:12;;;;;;;3.70;2.47;;;;;;;20.64;34.24;101155.53;5030763;28;20044;-73
2022/12/12 00:36:38;;;;;;;3.88;2.53;;;;;;;20.67;34.13;101159.66;5029602;28;20051;-72
2022/12/12 00:39:04;;;;;;;2.88;2.30;;;;;;;20.61;34.25;101157.72;5033430;28;20037;-72
2022/12/12 00:41:29;;;;;;;3.00;2.40;;;;;;;20.63;34.25;101155.72;5033126;28;20080;-72
2022/12/12 00:43:55;;;;;;;3.30;2.50;;;;;;;20.58;34.32;101153.59;5029082;28;20403;-72
2022/12/12 00:46:22;;;;;;;3.40;2.55;;;;;;;20.64;34.34;101158.19;5029925;28;20485;-72
2022/12/12 00:48:49;;;;;;;3.10;2.67;;;;;;;20.60;34.27;101158.72;5028861;28;20034;-67
2022/12/12 00:51:20;;;;;;;3.58;2.58;;;;;;;20.61;34.32;101160.34;5029724;28;20048;-68
2022/12/12 00:53:47;;;;;;;4.18;2.80;;;;;;;20.61;34.33;101160.34;5028813;28;20446;-68
2022/12/12 00:56:19;;;;;;;3.08;2.42;;;;;;;20.55;34.36;101159.25;5029960;28;20156;-67
2022/12/12 00:58:46;;;;;;;2.88;2.30;;;;;;;20.55;34.35;101153.97;5024512;28;20128;-67
2022/12/12 01:01:15;;;;;;;2.65;2.38;;;;;;;20.57;34.39;101159.06;5025883;28;20076;-67
2022/12/12 01:03:42;;;;;;;3.35;2.55;;;;;;;20.57;34.36;101162.53;5026673;28;20608;-67
2022/12/12 01:06:08;;;;;;;2.63;2.30;;;;;;;20.51;34.60;101165.91;5026033;28;20037;-67
2022/12/12 01:08:35;;;;;;;3.15;2.40;;;;;;;20.52;34.51;101162.25;5033608;28;20035;-67
2022/12/12 01:11:01;;;;;;;3.60;2.88;;;;;;;20.59;34.37;101171.13;5034223;28;20044;-68
2022/12/12 01:13:27;;;;;;;3.97;2.60;;;;;;;20.57;34.28;101164.38;5024877;28;20037;-67
2022/12/12 01:15:52;;;;;;;3.47;2.53;;;;;;;20.57;34.44;101159.06;5025168;28;20057;-67
2022/12/12 01:18:19;;;;;;;3.88;2.50;;;;;;;20.56;34.41;101162.72;5029446;28;20055;-68
2022/12/12 01:20:45;;;;;;;3.42;2.53;;;;;;;20.56;34.34;101170.66;5023648;28;20393;-67
2022/12/12 01:23:12;;;;;;;3.15;2.50;;;;;;;20.49;34.50;101168.72;5024727;28;20134;-68
2022/12/12 01:25:38;;;;;;;4.07;2.67;;;;;;;20.48;34.48;101174.19;5025561;28;20037;-67
2022/12/12 01:28:04;;;;;;;3.00;2.40;;;;;;;20.46;34.40;101178.81;5026622;28;20563;-67
2022/12/12 01:30:31;;;;;;;3.28;2.30;;;;;;;20.47;34.29;101177.84;5028246;28;20039;-68
2022/12/12 01:32:56;;;;;;;3.17;2.35;;;;;;;20.50;34.49;101186.25;5027495;28;20033;-67
2022/12/12 01:35:22;;;;;;;3.10;2.20;;;;;;;20.49;34.49;101184.59;5026527;28;20122;-67
2022/12/12 01:37:48;;;;;;;3.15;2.45;;;;;;;20.43;34.53;101182.63;5025632;28;20075;-67
2022/12/12 01:40:23;;;;;;;3.20;2.58;;;;;;;20.40;34.54;101184.78;5028911;28;20045;-67
2022/12/12 01:42:50;;;;;;;2.55;2.13;;;;;;;20.46;34.41;101184.09;5038100;28;20037;-67
2022/12/12 01:45:52;;;;;;;3.00;2.40;;;;;;;20.48;34.38;101192.72;5028762;28;20034;-68
2022/12/12 01:48:21;;;;;;;3.10;2.47;;;;;;;20.46;34.55;101186.75;5027029;28;20045;-67
2022/12/12 01:50:48;;;;;;;3.03;2.60;;;;;;;20.43;34.68;101197.69;5022796;28;20037;-67
2022/12/12 01:53:17;;;;;;;3.05;2.45;;;;;;;20.42;34.61;101196.84;5023958;28;20052;-67
2022/12/12 01:55:44;;;;;;;3.05;2.58;;;;;;;20.47;34.23;101181.31;5030564;28;20140;-67
2022/12/12 01:58:10;;;;;;;3.78;2.55;;;;;;;20.53;34.26;101198.28;5025115;28;20140;-67
2022/12/12 02:00:36;;;;;;;2.97;2.38;;;;;;;20.44;34.41;101192.22;5024084;28;20484;-67
2022/12/12 02:03:01;;;;;;;3.45;2.35;;;;;;;20.39;34.44;101188.41;5029601;28;20052;-67
2022/12/12 02:05:34;;;;;;;3.17;2.38;;;;;;;20.49;34.35;101184.59;5029096;28;20084;-67
2022/12/12 02:08:02;;;;;;;3.38;2.40;;;;;;;20.43;34.49;101182.63;5027987;28;20094;-67
2022/12/12 02:10:28;;;;;;;2.67;2.38;;;;;;;20.40;34.48;101176.84;5036323;28;20045;-67
2022/12/12 02:13:01;;;;;;;2.58;2.33;;;;;;;20.40;34.63;101188.25;5034814;28;20040;-67
2022/12/12 02:15:37;;;;;;;3.70;2.38;;;;;;;20.47;34.44;101180.47;5027897;28;20045;-67
2022/12/12 02:18:10;;;;;;;2.80;2.30;;;;;;;20.42;34.34;101194.22;5025789;28;20048;-67
2022/12/12 02:20:51;;;;;;;2.92;2.33;;;;;;;20.44;34.31;101184.28;5027300;28;20037;-67
2022/12/12 02:24:01;;;;;;;2.67;2.28;;;;;;;20.44;34.47;101194.84;5028211;28;20085;-67
2022/12/12 02:26:48;;;;;;;3.20;2.28;;;;;;;20.32;34.67;101193.59;5026861;28;20040;-67
2022/12/12 02:29:31;;;;;;;2.42;2.20;;;;;;;20.44;34.53;101191.38;5027125;28;20048;-67
2022/12/12 02:32:26;;;;;;;3.03;2.42;;;;;;;20.43;34.46;101197.69;5023345;28;20107;-67
2022/12/12 02:35:19;;;;;;;3.10;2.58;;;;;;;20.40;34.61;101188.25;5024839;28;20526;-67
2022/12/12 02:38:02;;;;;;;2.95;2.47;;;;;;;20.42;34.43;101193.38;5025120;28;20036;-67
2022/12/12 02:40:37;;;;;;;2.65;2.30;;;;;;;20.37;34.52;101193.06;5034214;28;20608;-67
2022/12/12 02:43:24;;;;;;;2.70;2.25;;;;;;;20.38;34.53;101197.34;5032263;28;20029;-67
2022/12/12 02:45:57;;;;;;;3.72;2.60;;;;;;;20.38;34.58;101194.72;5024671;28;20136;-67
2022/12/12 02:48:29;;;;;;;3.50;2.53;;;;;;;20.33;34.62;101194.41;5024404;28;20041;-67
2022/12/12 02:50:59;;;;;;;3.85;2.63;;;;;;;20.35;34.53;101197.72;5017045;28;20048;-67
2022/12/12 02:53:25;;;;;;;3.08;2.45;;;;;;;20.30;34.68;101200.06;5026608;28;20033;-67
2022/12/12 02:56:02;;;;;;;3.13;2.25;;;;;;;20.30;34.60;101203.53;5024280;28;20364;-67
2022/12/12 02:58:27;;;;;;;3.55;2.33;;;;;;;20.36;34.58;101194.06;5024370;28;20079;-67
2022/12/12 03:01:10;;;;;;;3.15;2.40;;;;;;;20.41;34.55;101200.50;5028370;28;20045;-67
2022/12/12 03:10:04;;;;;;;3.03;2.70;;;;;;;20.35;34.66;101200.34;5027502;28;20061;-67
2022/12/12 03:12:38;;;;;;;2.72;2.20;;;;;;;20.35;34.67;101205.63;5033830;28;20033;-67
2022/12/12 03:15:15;;;;;;;3.15;2.38;;;;;;;20.29;34.55;101199.22;5043421;28;21093;-67
2022/12/12 03:17:57;;;;;;;2.72;2.10;;;;;;;20.34;34.57;101201.34;5020768;28;20033;-67
2022/12/12 03:20:32;;;;;;;3.03;2.60;;;;;;;20.35;34.54;101205.63;5023755;28;20037;-67
2022/12/12 03:23:13;;;;;;;3.22;2.22;;;;;;;20.20;34.67;101203.72;5027390;28;20041;-67
2022/12/12 03:26:00;;;;;;;3.47;2.38;;;;;;;20.21;34.72;101199.25;5023268;28;20037;-67
2022/12/12 03:28:48;;;;;;;3.13;2.22;;;;;;;20.28;34.65;101205.50;5023903;28;20033;-67
2022/12/12 03:31:19;;;;;;;3.10;2.47;;;;;;;20.27;34.59;101203.03;5026200;28;20059;-67
2022/12/12 03:33:52;;;;;;;2.67;2.28;;;;;;;20.25;34.44;101192.63;5020417;28;20492;-67
2022/12/12 03:36:31;;;;;;;2.90;2.22;;;;;;;20.25;34.67;101205.84;5022211;28;20079;-67
2022/12/12 03:39:05;;;;;;;2.55;2.10;;;;;;;20.24;34.59;101206.84;5025653;28;20098;-67
2022/12/12 03:41:37;;;;;;;2.55;1.90;;;;;;;20.24;34.67;101209.50;5031714;28;20127;-67
2022/12/12 03:44:13;;;;;;;2.78;2.13;;;;;;;20.23;34.71;101211.31;5035515;28;20565;-67
2022/12/12 03:46:53;;;;;;;2.47;2.20;;;;;;;20.11;34.81;101207.41;5023997;28;20390;-67
2022/12/12 03:49:39;;;;;;;3.10;2.40;;;;;;;20.25;34.66;101213.78;5025234;28;20096;-67
2022/12/12 03:52:14;;;;;;;2.58;2.30;;;;;;;20.22;34.67;101212.31;5024142;28;20094;-67
2022/12/12 03:54:47;;;;;;;3.65;2.38;;;;;;;20.18;34.71;101216.31;5026260;28;20605;-67
2022/12/12 03:57:37;;;;;;;2.75;2.15;;;;;;;20.18;34.71;101220.75;5026282;28;20470;-67
2022/12/12 04:00:08;;;;;;;2.70;2.40;;;;;;;20.27;34.71;101225.00;5026170;28;20101;-67
2022/12/12 04:03:00;;;;;;;2.60;2.38;;;;;;;20.18;34.69;101223.41;5025517;28;20119;-67
2022/12/12 04:08:37;;;;;;;2.65;2.15;;;;;;;20.25;34.57;101227.00;5022630;28;20505;-67
2022/12/12 04:14:28;;;;;;;3.42;2.28;;;;;;;20.18;34.69;101228.69;5032513;28;20132;-67
2022/12/12 04:16:59;;;;;;;2.63;2.17;;;;;;;20.14;34.63;101230.88;5029265;28;20033;-67
2022/12/12 04:26:37;;;;;;;2.97;1.95;;;;;;;20.21;34.51;101242.41;5025399;28;20045;-67
2022/12/12 04:28:31;;;;;;;2.10;1.85;;;;;;;20.14;34.47;101236.16;5027711;28;20039;-67
2022/12/12 04:31:02;;;;;;;2.75;2.20;;;;;;;20.08;34.67;101242.09;5027346;28;20048;-67
2022/12/12 04:33:39;;;;;;;2.88;2.20;;;;;;;20.14;34.68;101246.72;5025150;28;20096;-67
2022/12/12 04:36:09;;;;;;;3.97;2.33;;;;;;;20.11;34.62;101252.38;5030335;28;20038;-67
2022/12/12 04:38:36;;;;;;;2.83;2.20;;;;;;;20.13;34.58;101245.09;5026192;28;20029;-67
2022/12/12 04:41:06;;;;;;;2.40;2.00;;;;;;;20.11;34.64;101244.44;5028569;28;20517;-67
2022/12/12 04:43:34;;;;;;;3.08;2.40;;;;;;;20.07;34.56;101240.47;5037702;28;20037;-67
2022/12/12 04:46:12;;;;;;;2.15;1.90;;;;;;;20.07;34.57;101248.41;5031796;28;20048;-67
2022/12/12 04:48:49;;;;;;;3.55;2.00;;;;;;;20.08;34.70;101236.81;5025054;28;20548;-67
2022/12/12 04:51:20;;;;;;;3.22;2.50;;;;;;;20.01;34.78;101241.16;5026194;28;20041;-67
2022/12/12 04:53:51;;;;;;;3.10;2.53;;;;;;;20.07;34.64;101240.47;5025837;28;20033;-67
2022/12/12 04:56:22;;;;;;;3.22;2.40;;;;;;;20.09;34.68;101241.09;5029756;28;20033;-67
2022/12/12 04:58:48;;;;;;;3.40;2.38;;;;;;;20.09;34.63;101250.88;5024105;28;20041;-67
2022/12/12 05:01:33;;;;;;;2.78;2.20;;;;;;;20.04;34.70;101251.38;5025654;28;20044;-67
2022/12/12 05:04:08;;;;;;;2.53;2.17;;;;;;;20.02;34.73;101248.09;5027623;28;20064;-67
2022/12/12 05:06:42;;;;;;;2.95;2.30;;;;;;;20.02;34.61;101253.38;5027164;28;20052;-67
2022/12/12 05:09:10;;;;;;;3.58;2.25;;;;;;;20.03;34.69;101248.91;5024040;28;20037;-67
2022/12/12 05:11:36;;;;;;;3.10;2.08;;;;;;;20.02;34.68;101256.03;5031728;28;20036;-67
2022/12/12 05:14:02;;;;;;;3.78;2.50;;;;;;;19.94;34.78;101245.50;5036782;28;20055;-67
2022/12/12 05:16:45;;;;;;;2.75;2.10;;;;;;;20.01;34.67;101250.91;5035299;28;20110;-67
2022/12/12 05:19:11;;;;;;;3.30;2.50;;;;;;;20.03;34.84;101249.75;5024916;28;20040;-67
2022/12/12 05:21:36;;;;;;;2.95;2.28;;;;;;;20.03;34.68;101246.28;5025584;28;20561;-67
2022/12/12 05:24:02;;;;;;;3.00;2.15;;;;;;;20.01;34.64;101246.44;5027462;28;20053;-67
2022/12/12 05:26:30;;;;;;;2.78;2.20;;;;;;;20.01;34.63;101249.09;5026696;28;20085;-67
2022/12/12 05:28:56;;;;;;;2.90;2.15;;;;;;;20.00;34.61;101244.78;5026824;28;20087;-67
2022/12/12 05:31:22;;;;;;;3.17;2.28;;;;;;;19.99;34.71;101248.44;5023102;28;20033;-67
2022/12/12 05:33:48;;;;;;;1.88;1.73;;;;;;;19.99;34.68;101247.63;5026519;28;20041;-67
2022/12/12 05:36:14;;;;;;;2.78;2.28;;;;;;;20.00;34.60;101243.97;5030696;28;20043;-67
2022/12/12 05:38:40;;;;;;;4.32;2.00;;;;;;;19.95;34.65;101241.03;5031128;28;20507;-67
2022/12/12 05:41:06;;;;;;;2.70;2.28;;;;;;;19.99;34.64;101237.88;5027392;28;20124;-67
2022/12/12 05:43:32;;;;;;;2.80;2.33;;;;;;;20.00;34.69;101239.50;5034935;28;20444;-67
2022/12/12 05:45:57;;;;;;;2.75;2.25;;;;;;;19.96;34.61;101237.38;5031602;28;20044;-67
2022/12/12 05:48:23;;;;;;;3.33;2.28;;;;;;;20.00;34.57;101238.69;5026147;28;20041;-67
2022/12/12 05:50:48;;;;;;;2.47;2.15;;;;;;;20.03;34.48;101244.44;5026647;28;20030;-67
2022/12/12 05:53:14;;;;;;;3.28;2.33;;;;;;;19.93;34.73;101243.84;5029575;28;20048;-67
2022/12/12 05:55:40;;;;;;;2.35;2.15;;;;;;;19.98;34.61;101244.16;5023887;28;20471;-67
2022/12/12 05:58:06;;;;;;;2.40;2.20;;;;;;;19.94;34.65;101239.38;5023996;28;20479;-65
2022/12/12 06:00:31;;;;;;;3.45;2.38;;;;;;;19.90;34.70;101236.22;5028739;28;20127;-65
2022/12/12 06:02:57;;;;;;;2.55;2.17;;;;;;;19.85;34.78;101247.31;5025359;28;20076;-65
2022/12/12 06:05:22;;;;;;;3.10;2.25;;;;;;;19.95;34.63;101243.66;5024902;28;20507;-65
2022/12/12 06:07:48;;;;;;;2.67;2.40;;;;;;;19.90;34.79;101242.34;5030601;28;20040;-65
2022/12/12 06:10:13;;;;;;;3.28;2.33;;;;;;;19.94;34.67;101245.50;5036548;28;20045;-65
2022/12/12 06:12:39;;;;;;;2.30;2.08;;;;;;;19.97;34.54;101237.22;5035826;28;20040;-65
2022/12/12 06:15:05;;;;;;;3.83;2.30;;;;;;;19.92;34.80;101247.44;5033794;28;20057;-65
2022/12/12 06:17:31;;;;;;;3.00;2.28;;;;;;;19.91;34.72;101243.97;5035117;28;20036;-65
2022/12/12 06:19:56;;;;;;;2.95;2.17;;;;;;;19.96;34.47;101234.75;5030374;28;20091;-65
2022/12/12 06:22:22;;;;;;;2.47;1.88;;;;;;;19.85;34.80;101243.84;5027295;28;20048;-65
2022/12/12 06:24:47;;;;;;;2.70;1.90;;;;;;;19.88;34.64;101246.16;5023203;28;20048;-65
2022/12/12 06:27:13;;;;;;;3.45;2.38;;;;;;;19.86;34.54;101241.03;5025074;28;20163;-65
2022/12/12 06:29:38;;;;;;;3.85;2.67;;;;;;;20.04;34.58;101248.75;5024972;28;20087;-65
2022/12/12 06:32:04;;;;;;;2.90;2.03;;;;;;;20.92;33.53;101250.28;5023700;28;20041;-67
2022/12/12 06:34:30;;;;;;;2.40;2.20;;;;;;;21.93;31.60;101255.19;5013875;28;20048;-65
2022/12/12 06:36:55;;;;;;;3.05;2.30;;;;;;;22.54;31.04;101234.53;5026820;28;20046;-66
2022/12/12 06:39:21;;;;;;;2.95;2.13;;;;;;;23.06;29.96;101257.34;5023270;28;20045;-65
2022/12/12 06:41:46;;;;;;;3.15;2.20;;;;;;;23.03;30.31;101245.28;5024480;28;20032;-65
2022/12/12 06:44:12;;;;;;;2.60;2.10;;;;;;;22.90;30.39;101247.81;5029693;28;20434;-65
2022/12/12 06:46:37;;;;;;;2.72;1.88;;;;;;;22.64;31.09;101250.16;5030859;28;20048;-65
2022/12/12 06:49:08;;;;;;;2.20;2.00;;;;;;;22.47;31.24;101253.06;5025266;28;20033;-65
2022/12/12 06:51:37;;;;;;;2.05;1.85;;;;;;;22.33;31.87;101255.72;5024036;28;20037;-65
2022/12/12 06:54:03;;;;;;;2.80;2.38;;;;;;;22.11;32.27;101257.50;5025946;28;20033;-65
2022/12/12 06:56:29;;;;;;;3.03;2.03;;;;;;;21.93;32.46;101252.53;5023308;28;20048;-65
2022/12/12 06:58:58;;;;;;;3.20;2.30;;;;;;;21.74;32.95;101251.25;5024823;28;20044;-65
2022/12/12 07:01:23;;;;;;;2.50;2.03;;;;;;;21.63;33.04;101263.13;5022602;28;20128;-65
2022/12/12 07:03:50;;;;;;;2.17;1.90;;;;;;;21.53;33.06;101261.72;5025374;28;20383;-65
2022/12/12 07:06:18;;;;;;;2.20;2.00;;;;;;;21.41;33.37;101264.81;5024213;28;20094;-65
2022/12/12 07:08:44;;;;;;;3.15;2.10;;;;;;;21.41;33.11;101264.81;5025938;28;20055;-65
2022/12/12 07:11:29;;;;;;;2.72;2.10;;;;;;;21.38;33.19;101265.19;5026216;28;20793;-65
2022/12/12 07:13:56;;;;;;;2.53;2.15;;;;;;;21.38;33.48;101265.19;5028198;28;20061;-65
2022/12/12 07:16:22;;;;;;;2.55;2.20;;;;;;;21.31;33.35;101268.72;5033738;28;20037;-65
2022/12/12 07:18:48;;;;;;;2.47;2.00;;;;;;;21.28;33.38;101269.06;5024889;28;20045;-65
2022/12/12 07:21:17;;;;;;;2.60;1.92;;;;;;;21.21;33.75;101273.41;5022305;28;20033;-65
2022/12/12 07:23:43;;;;;;;2.47;1.88;;;;;;;21.04;33.83;101262.94;5024502;28;20424;-66
2022/12/12 07:26:12;;;;;;;2.92;2.40;;;;;;;21.11;33.79;101279.75;5023744;28;20171;-65
2022/12/12 07:28:38;;;;;;;2.40;2.20;;;;;;;21.38;33.53;101277.59;5026648;28;20043;-66
2022/12/12 07:31:08;;;;;;;2.95;2.03;;;;;;;22.43;31.98;101272.16;5024499;28;20041;-65
2022/12/12 07:33:34;;;;;;;2.65;2.20;;;;;;;23.17;30.61;101278.09;5026960;28;20037;-65
2022/12/12 07:36:00;;;;;;;3.13;2.03;;;;;;;23.24;30.55;101273.66;5028576;28;20450;-65
2022/12/12 07:38:26;;;;;;;2.80;2.30;;;;;;;23.21;30.77;101282.84;5024785;28;20037;-65
2022/12/12 07:40:52;;;;;;;2.70;2.20;;;;;;;23.10;30.80;101287.81;5023348;28;20438;-66
2022/12/12 07:43:17;;;;;;;3.03;2.00;;;;;;;22.89;31.38;101291.31;5029059;28;20041;-65
2022/12/12 07:45:43;;;;;;;3.08;2.40;;;;;;;;;;5032143;28;20029;-65
2022/12/12 07:48:09;;;;;;;2.90;2.15;;;;;;;22.63;31.65;101294.47;5026979;28;20037;-65
2022/12/12 07:50:36;;;;;;;2.53;1.88;;;;;;;22.50;32.00;101303.09;5028300;28;20403;-65
2022/12/12 07:53:01;;;;;;;3.58;2.13;;;;;;;22.27;32.24;101299.75;5027735;28;20056;-65
2022/12/12 07:55:27;;;;;;;2.58;2.15;;;;;;;22.17;32.35;101302.66;5028559;28;20498;-66
2022/12/12 07:57:52;;;;;;;2.95;2.05;;;;;;;22.06;32.33;101300.47;5030056;28;20042;-65
2022/12/12 08:00:18;;;;;;;2.70;1.90;;;;;;;21.96;32.82;101303.38;5027831;28;20071;-65
2022/12/12 08:02:44;;;;;;;3.10;2.05;;;;;;;21.90;32.68;101308.56;5029220;28;20037;-65
2022/12/12 08:05:10;;;;;;;1.60;1.50;;;;;;;21.86;32.68;101317.88;5025469;28;20045;-65
2022/12/12 08:07:35;;;;;;;2.50;1.95;;;;;;;21.82;33.10;101317.44;5031237;28;20099;-65
2022/12/12 08:10:01;;;;;;;3.55;1.80;;;;;;;21.79;32.75;101314.31;5026402;28;20719;-65
2022/12/12 08:12:28;;;;;;;3.08;2.10;;;;;;;21.79;33.23;101316.97;5024529;28;20033;-65
2022/12/12 08:14:54;;;;;;;2.53;2.08;;;;;;;21.73;33.22;101309.75;5031923;28;20047;-65
2022/12/12 08:17:19;;;;;;;2.45;2.22;;;;;;;21.67;33.25;101308.63;5030364;28;21117;-66
2022/12/12 08:19:45;;;;;;;3.33;2.30;;;;;;;21.58;33.15;101299.94;5031106;28;20033;-64
2022/12/12 08:22:10;;;;;;;2.45;2.10;;;;;;;21.56;33.33;101309.09;5033705;28;20481;-64
2022/12/12 08:24:36;;;;;;;1.92;1.73;;;;;;;21.51;33.39;101299.00;5030520;28;20041;-65
2022/12/12 08:27:01;;;;;;;3.40;2.35;;;;;;;21.45;33.50;101312.16;5035082;28;20044;-65
2022/12/12 08:29:27;;;;;;;2.20;2.00;;;;;;;21.40;33.78;101312.69;5038961;28;20752;-65
2022/12/12 08:31:52;;;;;;;3.60;2.10;;;;;;;21.37;33.62;101307.75;5029933;28;20052;-65
2022/12/12 08:34:18;;;;;;;2.60;2.10;;;;;;;21.33;33.67;101309.91;5036485;28;20111;-65
2022/12/12 08:36:44;;;;;;;3.17;1.92;;;;;;;21.30;33.91;101306.81;5035940;28;20839;-65
2022/12/12 08:39:11;;;;;;;2.03;1.83;;;;;;;21.28;33.79;101311.44;5030778;28;20156;-65
2022/12/12 08:41:39;;;;;;;2.22;1.75;;;;;;;21.25;33.94;101320.59;5034303;28;20031;-65
2022/12/12 08:44:06;;;;;;;2.55;2.13;;;;;;;21.21;33.87;101310.50;5032066;28;20579;-65
2022/12/12 08:46:32;;;;;;;3.20;2.17;;;;;;;21.21;34.02;101321.91;5030940;28;20036;-64
2022/12/12 08:48:58;;;;;;;2.95;2.22;;;;;;;21.15;34.10;101316.47;5035164;28;20599;-65
2022/12/12 08:51:23;;;;;;;2.00;1.80;;;;;;;21.16;33.92;101316.28;5028524;28;20020;-65
2022/12/12 08:53:51;;;;;;;2.35;2.03;;;;;;;21.16;34.06;101324.25;5032974;28;20131;-65
2022/12/12 08:56:18;;;;;;;2.40;2.03;;;;;;;21.10;34.06;101319.66;5038858;28;20383;-65
2022/12/12 08:58:45;;;;;;;3.75;2.40;;;;;;;21.07;33.94;101326.13;5037107;28;20045;-65
2022/12/12 09:01:22;;;;;;;2.10;1.90;;;;;;;21.10;33.82;101335.56;5023960;28;20032;-65
2022/12/12 09:03:49;;;;;;;5.00;2.17;;;;;;;21.16;33.75;101337.50;5029815;28;20373;-67
2022/12/12 09:06:15;;;;;;;3.97;2.40;;;;;;;21.68;33.04;101334.94;5032000;28;20089;-67
2022/12/12 09:08:41;;;;;;;2.88;2.10;;;;;;;22.33;32.11;101344.09;5039529;28;20040;-64
2022/12/12 09:11:08;;;;;;;3.30;2.20;;;;;;;22.49;31.96;101346.56;5042597;28;20483;-64
2022/12/12 09:13:34;;;;;;;1.58;1.48;;;;;;;22.42;31.52;101340.34;5027663;28;20040;-66
2022/12/12 09:15:59;;;;;;;2.70;1.90;;;;;;;22.33;31.90;101345.94;5032509;28;20055;-66
2022/12/12 09:18:25;;;;;;;2.70;2.00;;;;;;;22.09;32.34;101347.88;5038106;28;21268;-66
2022/12/12 09:20:55;;;;;;;3.53;2.20;;;;;;;22.01;32.76;101343.41;5032902;28;20538;-66
2022/12/12 09:23:22;;;;;;;2.25;1.98;;;;;;;21.92;32.66;101343.69;5035306;28;20145;-66
2022/12/12 09:25:48;;;;;;;2.83;2.13;;;;;;;21.87;32.82;101354.81;5035738;28;20059;-66
2022/12/12 09:28:16;;;;;;;2.47;2.05;;;;;;;21.82;32.67;101343.13;5031053;28;20116;-67
2022/12/12 09:30:42;;;;;;;2.47;2.10;;;;;;;21.82;32.96;101349.25;5038669;28;20033;-67
2022/12/12 09:33:09;;;;;;;2.25;2.00;;;;;;;21.80;32.92;101347.78;5052879;28;20048;-68
2022/12/12 09:35:34;;;;;;;2.95;2.08;;;;;;;21.78;32.92;101347.16;5036416;28;20116;-66
2022/12/12 09:38:00;;;;;;;2.00;1.80;;;;;;;21.71;32.74;101347.84;5034551;28;20043;-66
2022/12/12 09:40:28;;;;;;;2.55;1.92;;;;;;;21.64;32.96;101346.91;5037367;28;20053;-66
2022/12/12 09:42:54;;;;;;;2.38;1.95;;;;;;;21.61;33.01;101351.75;5043361;28;20411;-66
2022/12/12 09:45:21;;;;;;;2.63;2.20;;;;;;;21.57;33.34;101351.31;5037044;28;20056;-66
2022/12/12 09:47:52;;;;;;;2.38;1.80;;;;;;;21.47;33.20;101347.25;5034905;28;20041;-66
2022/12/12 09:50:22;;;;;;;2.50;1.95;;;;;;;21.45;33.65;101354.53;5032693;28;20124;-66
2022/12/12 09:52:48;;;;;;;2.53;1.92;;;;;;;21.29;33.62;101337.75;5034880;28;20072;-66
2022/12/12 09:55:19;;;;;;;2.30;1.92;;;;;;;21.38;33.33;101346.50;5042547;28;20037;-66
2022/12/12 09:58:09;;;;;;;2.67;2.05;;;;;;;21.32;33.57;101345.34;5033689;28;20037;-66
2022/12/12 10:00:37;;;;;;;;;;;;;;;21.32;33.54;101344.53;5038855;28;20132;-65
2022/12/12 10:03:14;;;;;;;2.50;2.15;;;;;;;21.26;33.56;101339.94;5030308;28;19975;-66
2022/12/12 10:05:43;;;;;;;2.17;1.90;;;;;;;21.22;33.70;101341.28;5031094;28;20586;-66
2022/12/12 10:08:39;;;;;;;2.53;1.90;;;;;;;21.22;33.62;101344.75;5028219;28;20032;-66
2022/12/12 10:11:48;;;;;;;1.70;1.50;;;;;;;21.17;33.80;101338.31;5034945;28;20440;-66
2022/12/12 10:13:58;;;;;;;2.92;2.13;;;;;;;21.16;33.74;101337.50;5034632;28;20033;-66
2022/12/12 10:16:24;;;;;;;2.50;2.05;;;;;;;21.12;33.75;101334.38;5034641;28;20044;-66
2022/12/12 10:18:53;;;;;;;2.42;1.73;;;;;;;21.10;33.64;101335.56;5033008;28;20032;-66
2022/12/12 10:21:29;;;;;;;2.17;1.98;;;;;;;21.08;33.47;101333.09;5028785;28;20052;-66
2022/12/12 10:24:17;;;;;;;2.75;1.88;;;;;;;21.17;33.39;101333.00;5043025;28;20378;-66
2022/12/12 10:26:42;;;;;;;2.38;2.00;;;;;;;21.39;33.05;101334.88;5034886;28;20041;-66
2022/12/12 10:29:13;;;;;;;2.55;2.10;;;;;;;21.46;32.90;101333.16;5034742;28;20093;-66
2022/12/12 10:32:15;;;;;;;2.72;2.00;;;;;;;21.86;32.60;101333.78;4985479;28;20410;-69
2022/12/12 10:34:59;;;;;;;3.03;2.08;;;;;;;22.35;31.94;101328.81;4991733;28;20152;-70
2022/12/12 10:37:43;;;;;;;3.85;2.20;;;;;;;22.45;31.64;101323.25;5036216;28;20040;-71
2022/12/12 10:40:30;;;;;;;2.40;2.03;;;;;;;22.42;31.63;101328.91;5024062;28;20065;-68
2022/12/12 10:43:09;;;;;;;2.03;1.80;;;;;;;22.12;32.26;101317.50;5028627;28;20195;-69
2022/12/12 10:45:47;;;;;;;2.72;1.80;;;;;;;22.00;32.56;101325.03;5035537;28;20395;-69
2022/12/12 10:48:15;;;;;;;2.33;1.90;;;;;;;21.95;32.69;101325.59;4997070;28;20392;-66
2022/12/12 10:50:44;;;;;;;2.17;1.98;;;;;;;22.05;32.29;101321.88;5016454;28;20036;-68
2022/12/12 10:53:11;;;;;;;2.72;2.05;;;;;;;22.21;32.20;101319.03;5026286;28;20478;-67
2022/12/12 10:55:58;;;;;;;2.50;1.95;;;;;;;22.22;32.29;101323.34;5024573;28;20041;-67
2022/12/12 10:58:36;;;;;;;3.10;2.00;;;;;;;22.28;32.35;101315.47;5012990;28;20490;-64
2022/12/12 11:01:09;;;;;;;2.53;2.03;;;;;;;22.29;32.24;101319.78;5030759;28;20041;-67
2022/12/12 11:03:36;;;;;;;2.70;2.00;;;;;;;22.22;32.63;101325.97;5010739;28;20037;-70
2022/12/12 11:06:06;;;;;;;2.83;2.10;;;;;;;22.18;32.82;101324.72;5008441;28;20059;-67
2022/12/12 11:08:34;;;;;;;3.80;2.00;;;;;;;22.14;32.85;101312.81;5031005;28;20357;-64
2022/12/12 11:11:22;;;;;;;2.55;1.95;;;;;;;22.21;32.88;101324.34;5030472;28;20041;-68
2022/12/12 11:14:00;;;;;;;2.40;1.90;;;;;;;22.35;32.61;101320.03;5033191;28;20045;-69
2022/12/12 11:16:38;;;;;;;2.35;1.75;;;;;;;22.41;32.70;101322.78;5029887;28;20057;-68
2022/12/12 11:19:15;;;;;;;3.38;2.28;;;;;;;21.95;33.35;101322.94;5017102;28;20124;-71
2022/12/12 11:21:40;;;;;;;3.53;2.97;;;;;;;21.80;33.62;101316.78;4981301;28;21546;-70
2022/12/12 11:24:12;;;;;;;2.55;1.95;;;;;;;21.74;33.47;101325.47;5001965;28;20041;-71
2022/12/12 11:27:00;;;;;;;2.03;1.85;;;;;;;21.70;33.52;101317.03;5034247;28;20037;-71
2022/12/12 11:29:30;;;;;;;3.13;2.30;;;;;;;21.67;33.55;101321.88;5032049;28;20503;-71
2022/12/12 11:31:56;;;;;;;;;;;;;;;21.63;33.73;101315.31;5032640;28;20671;-72
2022/12/12 11:34:25;;;;;;;3.17;2.10;;;;;;;21.60;33.51;101321.78;5028715;28;19987;-71
2022/12/12 11:36:51;;;;;;;2.40;1.90;;;;;;;21.55;33.48;101308.25;5002802;28;20051;-66
2022/12/12 11:39:41;;;;;;;2.38;2.13;;;;;;;21.54;33.54;101311.06;5023266;28;20558;-65
2022/12/12 11:42:12;;;;;;;2.70;1.98;;;;;;;21.53;33.76;101309.41;5032945;28;20033;-65
2022/12/12 11:44:38;;;;;;;2.97;2.13;;;;;;;21.50;33.49;101312.44;5031228;28;20045;-66
2022/12/12 11:47:23;;;;;;;2.72;2.10;;;;;;;21.49;33.53;101308.97;5031511;28;20045;-66
2022/12/12 11:49:59;;;;;;;2.40;1.83;;;;;;;21.45;33.67;101305.03;5026258;28;20075;-66
2022/12/12 11:52:30;;;;;;;2.70;2.15;;;;;;;21.47;33.31;101304.84;5008552;28;20052;-67
2022/12/12 11:54:57;;;;;;;2.92;2.17;;;;;;;21.41;33.72;101301.91;5013734;28;20336;-67
2022/12/12 11:57:48;;;;;;;3.55;2.45;;;;;;;21.44;33.70;101305.19;4997399;28;20442;-67
2022/12/12 12:00:17;;;;;;;2.38;2.17;;;;;;;21.42;33.62;101308.03;5022798;28;20501;-68